createdAt,value
2022-09-28T00:00:32.450Z,63.05
2022-09-28T00:01:32.499Z,65.91
2022-09-28T00:02:32.514Z,54.83
2022-09-28T00:03:32.456Z,68.05
2022-09-28T00:04:32.423Z,48.96
2022-09-28T00:05:32.414Z,55.46
2022-09-28T00:06:32.405Z,41.15
2022-09-28T00:07:32.397Z,42.00
2022-09-28T00:08:32.413Z,50.86
2022-09-28T00:09:32.375Z,57.87
2022-09-28T00:10:32.357Z,59.34
2022-09-28T00:11:32.354Z,59.44
2022-09-28T00:12:32.348Z,63.57
2022-09-28T00:13:32.375Z,47.73
2022-09-28T00:14:32.334Z,41.41
2022-09-28T00:15:32.325Z,49.38
2022-09-28T00:16:32.352Z,50.50
2022-09-28T00:17:32.311Z,50.41
2022-09-28T00:18:32.334Z,62.50
2022-09-28T00:19:32.296Z,51.52
2022-09-28T00:20:32.292Z,51.00
2022-09-28T00:21:32.284Z,53.12
2022-09-28T00:22:32.271Z,64.41
2022-09-28T00:23:32.296Z,56.57
2022-09-28T00:24:32.254Z,45.92
2022-09-28T00:25:32.245Z,55.83
2022-09-28T00:26:32.234Z,58.68
2022-09-28T00:27:32.217Z,45.57
2022-09-28T00:28:32.253Z,57.34
2022-09-28T00:29:32.216Z,57.26
2022-09-28T00:30:32.204Z,51.63
2022-09-28T00:31:32.234Z,41.45
2022-09-28T00:32:32.189Z,53.41
2022-09-28T00:33:32.205Z,52.44
2022-09-28T00:34:32.182Z,53.89
2022-09-28T00:35:32.161Z,60.52
2022-09-28T00:36:32.163Z,63.00
2022-09-28T00:37:32.145Z,44.59
2022-09-28T00:38:32.173Z,40.75
2022-09-28T00:39:32.129Z,40.32
2022-09-28T00:40:32.166Z,47.57
2022-09-28T00:41:32.120Z,38.44
2022-09-28T00:42:32.113Z,40.89
2022-09-28T00:43:32.135Z,56.91
2022-09-28T00:44:32.091Z,55.77
2022-09-28T00:45:32.148Z,40.82
2022-09-28T00:46:33.073Z,41.93
2022-09-28T00:47:32.064Z,57.04
2022-09-28T00:48:32.090Z,49.29
2022-09-28T00:49:32.048Z,41.62
2022-09-28T00:50:32.045Z,58.04
2022-09-28T00:51:32.038Z,52.34
2022-09-28T00:52:32.028Z,52.61
2022-09-28T00:53:32.017Z,51.14
2022-09-28T00:54:32.047Z,55.18
2022-09-28T00:55:32.004Z,61.79
2022-09-28T00:56:31.993Z,49.17
2022-09-28T00:57:31.982Z,61.39
2022-09-28T00:58:31.979Z,64.68
2022-09-28T00:59:31.998Z,50.81
2022-09-28T01:00:32.019Z,39.42
2022-09-28T01:01:31.954Z,41.50
2022-09-28T01:02:32.035Z,56.54
2022-09-28T01:03:31.937Z,50.69
2022-09-28T01:04:31.957Z,62.00
2022-09-28T01:05:31.917Z,57.43
2022-09-28T01:06:31.910Z,57.96
2022-09-28T01:07:31.904Z,43.97
2022-09-28T01:08:31.893Z,55.90
2022-09-28T01:09:31.913Z,65.12
2022-09-28T01:10:31.883Z,57.25
2022-09-28T01:11:31.869Z,55.72
2022-09-28T01:12:31.859Z,47.01
2022-09-28T01:13:31.856Z,57.97
2022-09-28T01:14:31.871Z,64.51
2022-09-28T01:15:31.839Z,54.86
2022-09-28T01:16:31.865Z,58.54
2022-09-28T01:17:31.821Z,51.70
2022-09-28T01:18:31.816Z,58.30
2022-09-28T01:19:31.833Z,55.23
2022-09-28T01:20:31.802Z,53.05
2022-09-28T01:21:31.787Z,46.06
2022-09-28T01:22:31.774Z,59.31
2022-09-28T01:23:31.766Z,61.07
2022-09-28T01:24:31.786Z,63.00
2022-09-28T01:25:31.750Z,54.81
2022-09-28T01:26:31.739Z,52.96
2022-09-28T01:27:31.735Z,61.25
2022-09-28T01:28:31.723Z,58.39
2022-09-28T01:29:31.745Z,56.85
2022-09-28T01:30:31.708Z,54.68
2022-09-28T01:31:31.761Z,41.95
2022-09-28T01:32:31.694Z,63.95
2022-09-28T01:33:31.678Z,51.42
2022-09-28T01:34:31.699Z,67.07
2022-09-28T01:35:31.668Z,55.79
2022-09-28T01:36:31.653Z,54.74
2022-09-28T01:37:31.649Z,53.91
2022-09-28T01:38:31.639Z,61.77
2022-09-28T01:39:31.656Z,52.86
2022-09-28T01:40:31.651Z,57.07
2022-09-28T01:41:31.619Z,55.99
2022-09-28T01:42:31.604Z,55.86
2022-09-28T01:43:31.597Z,59.60
2022-09-28T01:44:31.626Z,53.51
2022-09-28T01:45:31.632Z,59.60
2022-09-28T01:46:31.575Z,64.56
2022-09-28T01:47:31.576Z,58.54
2022-09-28T01:48:31.562Z,52.53
2022-09-28T01:49:31.575Z,43.42
2022-09-28T01:50:31.543Z,46.08
2022-09-28T01:51:31.534Z,58.46
2022-09-28T01:52:31.535Z,56.37
2022-09-28T01:53:31.522Z,45.79
2022-09-28T01:54:31.538Z,60.68
2022-09-28T01:55:31.511Z,59.67
2022-09-28T01:56:31.500Z,58.43
2022-09-28T01:57:31.494Z,54.87
2022-09-28T01:58:31.474Z,60.43
2022-09-28T01:59:31.493Z,56.02
2022-09-28T02:00:31.507Z,64.41
2022-09-28T02:01:31.456Z,61.04
2022-09-28T02:02:31.519Z,58.73
2022-09-28T02:03:31.437Z,58.27
2022-09-28T02:04:31.462Z,57.18
2022-09-28T02:05:31.414Z,66.49
2022-09-28T02:06:31.415Z,53.64
2022-09-28T02:07:31.400Z,63.62
2022-09-28T02:08:31.387Z,61.35
2022-09-28T02:09:33.799Z,62.44
2022-09-28T02:10:32.374Z,57.18
2022-09-28T02:11:31.369Z,64.04
2022-09-28T02:12:31.354Z,63.50
2022-09-28T02:13:31.346Z,65.49
2022-09-28T02:14:31.364Z,67.46
2022-09-28T02:15:31.329Z,66.17
2022-09-28T02:16:31.407Z,59.28
2022-09-28T02:17:31.312Z,59.61
2022-09-28T02:18:31.309Z,58.32
2022-09-28T02:19:31.330Z,58.75
2022-09-28T02:20:31.294Z,59.73
2022-09-28T02:21:31.278Z,62.15
2022-09-28T02:22:31.275Z,58.30
2022-09-28T02:23:31.338Z,63.54
2022-09-28T02:24:31.284Z,63.33
2022-09-28T02:25:31.253Z,59.61
2022-09-28T02:26:31.261Z,63.23
2022-09-28T02:27:31.230Z,60.44
2022-09-28T02:28:31.222Z,55.99
2022-09-28T02:29:31.250Z,55.70
2022-09-28T02:30:31.203Z,58.09
2022-09-28T02:31:31.249Z,57.31
2022-09-28T02:32:31.188Z,57.59
2022-09-28T02:33:31.179Z,58.41
2022-09-28T02:34:31.191Z,67.42
2022-09-28T02:35:31.162Z,57.50
2022-09-28T02:36:31.153Z,60.84
2022-09-28T02:37:31.149Z,70.22
2022-09-28T02:38:31.146Z,61.18
2022-09-28T02:39:31.154Z,66.09
2022-09-28T02:40:31.153Z,60.73
2022-09-28T02:41:31.114Z,59.60
2022-09-28T02:42:31.115Z,60.58
2022-09-28T02:43:31.102Z,59.50
2022-09-28T02:44:31.114Z,65.97
2022-09-28T02:45:31.098Z,64.69
2022-09-28T02:46:31.078Z,53.93
2022-09-28T02:47:31.063Z,60.43
2022-09-28T02:48:45.737Z,61.82
2022-09-28T02:49:33.295Z,58.07
2022-09-28T02:50:31.041Z,55.58
2022-09-28T02:51:31.043Z,57.30
2022-09-28T02:52:31.026Z,53.97
2022-09-28T02:53:31.017Z,71.17
2022-09-28T02:54:31.046Z,67.93
2022-09-28T02:55:31.009Z,58.09
2022-09-28T02:56:30.991Z,59.18
2022-09-28T02:57:30.986Z,52.83
2022-09-28T02:58:30.975Z,57.53
2022-09-28T02:59:30.997Z,69.53
2022-09-28T03:00:30.956Z,66.53
2022-09-28T03:01:30.949Z,66.04
2022-09-28T03:02:31.025Z,66.89
2022-09-28T03:03:30.936Z,64.89
2022-09-28T03:04:30.955Z,52.46
2022-09-28T03:05:30.914Z,56.74
2022-09-28T03:06:30.908Z,56.46
2022-09-28T03:07:30.900Z,54.58
2022-09-28T03:08:30.891Z,70.58
2022-09-28T03:09:30.911Z,57.48
2022-09-28T03:10:30.875Z,63.19
2022-09-28T03:11:30.871Z,70.09
2022-09-28T03:12:30.857Z,61.51
2022-09-28T03:13:30.864Z,65.99
2022-09-28T03:14:30.870Z,62.84
2022-09-28T03:15:30.829Z,61.43
2022-09-28T03:16:30.842Z,53.39
2022-09-28T03:17:30.829Z,71.89
2022-09-28T03:18:30.808Z,59.44
2022-09-28T03:19:30.841Z,65.59
2022-09-28T03:20:30.793Z,66.59
2022-09-28T03:21:30.784Z,64.82
2022-09-28T03:22:30.773Z,70.75
2022-09-28T03:23:30.765Z,69.05
2022-09-28T03:24:30.792Z,66.69
2022-09-28T03:25:30.750Z,61.05
2022-09-28T03:26:30.747Z,69.42
2022-09-28T03:27:30.737Z,66.57
2022-09-28T03:28:30.725Z,51.41
2022-09-28T03:29:30.719Z,64.86
2022-09-28T03:30:30.737Z,70.07
2022-09-28T03:31:30.747Z,72.41
2022-09-28T03:32:30.693Z,68.11
2022-09-28T03:33:30.684Z,68.81
2022-09-28T03:34:30.712Z,66.78
2022-09-28T03:35:30.671Z,68.52
2022-09-28T03:36:30.659Z,64.64
2022-09-28T03:37:30.648Z,73.85
2022-09-28T03:38:30.643Z,64.19
2022-09-28T03:39:30.635Z,69.41
2022-09-28T03:40:30.708Z,71.91
2022-09-28T03:41:30.613Z,68.43
2022-09-28T03:42:30.614Z,73.46
2022-09-28T03:43:30.596Z,69.73
2022-09-28T03:44:30.583Z,72.09
2022-09-28T03:45:30.646Z,65.71
2022-09-28T03:46:30.579Z,68.46
2022-09-28T03:47:30.563Z,64.33
2022-09-28T03:48:32.660Z,62.34
2022-09-28T03:49:31.579Z,70.75
2022-09-28T03:50:30.542Z,63.17
2022-09-28T03:51:30.542Z,73.21
2022-09-28T03:52:30.525Z,66.59
2022-09-28T03:53:30.512Z,68.70
2022-09-28T03:54:30.542Z,67.23
2022-09-28T03:55:30.503Z,63.14
2022-09-28T03:56:30.492Z,68.65
2022-09-28T03:57:30.484Z,66.89
2022-09-28T03:58:30.477Z,66.65
2022-09-28T03:59:30.498Z,61.92
2022-09-28T04:00:30.459Z,69.28
2022-09-28T04:01:30.507Z,64.68
2022-09-28T04:02:30.492Z,71.21
2022-09-28T04:03:30.431Z,70.25
2022-09-28T04:04:30.461Z,71.24
2022-09-28T04:05:30.428Z,70.38
2022-09-28T04:06:30.409Z,58.70
2022-09-28T04:07:31.308Z,62.78
2022-09-28T04:08:31.392Z,68.64
2022-09-28T04:09:30.416Z,72.06
2022-09-28T04:10:30.376Z,66.52
2022-09-28T04:11:43.045Z,65.91
2022-09-28T04:12:32.360Z,65.99
2022-09-28T04:13:30.358Z,72.97
2022-09-28T04:14:30.372Z,69.04
2022-09-28T04:15:30.332Z,67.51
2022-09-28T04:16:30.409Z,71.26
2022-09-28T04:17:30.328Z,68.70
2022-09-28T04:18:30.310Z,69.39
2022-09-28T04:19:30.338Z,67.60
2022-09-28T04:20:30.290Z,72.36
2022-09-28T04:21:30.289Z,68.36
2022-09-28T04:22:30.278Z,70.91
2022-09-28T04:23:30.268Z,70.59
2022-09-28T04:24:30.290Z,70.98
2022-09-28T04:25:30.255Z,68.14
2022-09-28T04:26:30.250Z,70.02
2022-09-28T04:27:30.242Z,73.97
2022-09-28T04:28:30.233Z,73.61
2022-09-28T04:29:30.249Z,69.59
2022-09-28T04:30:30.220Z,69.41
2022-09-28T04:31:30.235Z,69.51
2022-09-28T04:32:30.198Z,70.57
2022-09-28T04:33:30.191Z,75.45
2022-09-28T04:34:35.136Z,72.80
2022-09-28T04:35:32.174Z,68.80
2022-09-28T04:36:30.171Z,73.35
2022-09-28T04:37:30.159Z,75.90
2022-09-28T04:38:48.818Z,72.59
2022-09-28T04:39:32.174Z,68.85
2022-09-28T04:40:30.288Z,68.12
2022-09-28T04:41:30.126Z,70.95
2022-09-28T04:42:30.112Z,69.57
2022-09-28T04:43:30.110Z,70.91
2022-09-28T04:44:30.137Z,67.91
2022-09-28T04:45:30.130Z,71.59
2022-09-28T04:46:30.075Z,71.50
2022-09-28T04:47:30.075Z,73.08
2022-09-28T04:48:30.062Z,70.62
2022-09-28T04:49:30.046Z,70.78
2022-09-28T04:50:30.077Z,74.42
2022-09-28T04:51:30.033Z,72.47
2022-09-28T04:52:30.026Z,72.11
2022-09-28T04:53:30.017Z,70.63
2022-09-28T04:54:30.006Z,71.31
2022-09-28T04:55:30.032Z,69.83
2022-09-28T04:56:29.995Z,72.40
2022-09-28T04:57:29.986Z,75.17
2022-09-28T04:58:29.988Z,70.25
2022-09-28T04:59:29.986Z,70.15
2022-09-28T05:00:29.987Z,72.80
2022-09-28T05:01:30.023Z,72.35
2022-09-28T05:02:29.983Z,69.88
2022-09-28T05:03:29.933Z,70.02
2022-09-28T05:04:29.929Z,68.24
2022-09-28T05:05:29.949Z,74.31
2022-09-28T05:06:29.907Z,73.49
2022-09-28T05:07:29.904Z,70.32
2022-09-28T05:08:29.894Z,71.65
2022-09-28T05:09:29.889Z,71.17
2022-09-28T05:10:29.907Z,70.44
2022-09-28T05:11:29.869Z,72.87
2022-09-28T05:12:29.856Z,72.57
2022-09-28T05:13:29.850Z,69.83
2022-09-28T05:14:29.843Z,69.68
2022-09-28T05:15:29.864Z,73.45
2022-09-28T05:16:29.901Z,73.47
2022-09-28T05:17:29.818Z,72.68
2022-09-28T05:18:29.809Z,73.55
2022-09-28T05:19:29.815Z,73.33
2022-09-28T05:20:29.834Z,71.29
2022-09-28T05:21:29.785Z,73.96
2022-09-28T05:22:29.787Z,71.62
2022-09-28T05:23:29.761Z,72.68
2022-09-28T05:24:29.763Z,70.86
2022-09-28T05:25:29.780Z,72.37
2022-09-28T05:26:29.757Z,72.76
2022-09-28T05:27:29.750Z,73.17
2022-09-28T05:28:29.745Z,72.68
2022-09-28T05:29:32.268Z,68.82
2022-09-28T05:30:30.750Z,72.70
2022-09-28T05:31:29.785Z,73.24
2022-09-28T05:32:29.691Z,72.45
2022-09-28T05:33:29.693Z,69.95
2022-09-28T05:34:29.672Z,69.36
2022-09-28T05:35:29.697Z,73.73
2022-09-28T05:36:29.666Z,73.93
2022-09-28T05:37:29.652Z,72.01
2022-09-28T05:38:29.643Z,74.28
2022-09-28T05:39:29.636Z,71.20
2022-09-28T05:40:29.662Z,70.63
2022-09-28T05:41:29.778Z,72.28
2022-09-28T05:42:29.613Z,72.33
2022-09-28T05:43:29.603Z,71.47
2022-09-28T05:44:29.601Z,72.20
2022-09-28T05:45:29.597Z,75.14
2022-09-28T05:46:29.665Z,72.88
2022-09-28T05:47:29.571Z,71.80
2022-09-28T05:48:29.563Z,72.49
2022-09-28T05:49:29.549Z,73.33
2022-09-28T05:50:29.546Z,74.20
2022-09-28T05:51:29.570Z,75.26
2022-09-28T05:52:29.532Z,68.85
2022-09-28T05:53:29.523Z,72.22
2022-09-28T05:54:29.514Z,67.53
2022-09-28T05:55:29.561Z,69.67
2022-09-28T05:56:29.526Z,75.78
2022-09-28T05:57:29.491Z,73.21
2022-09-28T05:58:29.486Z,70.75
2022-09-28T05:59:29.496Z,72.48
2022-09-28T06:00:29.573Z,68.58
2022-09-28T06:01:29.528Z,72.42
2022-09-28T06:02:29.482Z,71.86
2022-09-28T06:03:29.439Z,73.58
2022-09-28T06:04:29.437Z,73.95
2022-09-28T06:05:29.461Z,70.29
2022-09-28T06:06:29.413Z,70.02
2022-09-28T06:07:29.413Z,71.75
2022-09-28T06:08:29.399Z,72.05
2022-09-28T06:09:29.396Z,64.77
2022-09-28T06:10:29.423Z,69.89
2022-09-28T06:11:29.413Z,69.66
2022-09-28T06:12:29.368Z,67.36
2022-09-28T06:13:29.376Z,68.14
2022-09-28T06:14:29.353Z,70.27
2022-09-28T06:15:29.367Z,72.69
2022-09-28T06:16:29.421Z,74.18
2022-09-28T06:17:29.326Z,75.75
2022-09-28T06:18:29.316Z,70.66
2022-09-28T06:19:29.321Z,72.38
2022-09-28T06:20:29.333Z,72.23
2022-09-28T06:21:29.299Z,71.31
2022-09-28T06:22:29.288Z,70.14
2022-09-28T06:23:29.290Z,67.62
2022-09-28T06:24:29.267Z,70.25
2022-09-28T06:25:29.296Z,75.59
2022-09-28T06:26:29.258Z,72.46
2022-09-28T06:27:29.245Z,68.62
2022-09-28T06:28:29.245Z,72.58
2022-09-28T06:29:29.241Z,70.72
2022-09-28T06:30:29.334Z,67.20
2022-09-28T06:31:29.216Z,71.82
2022-09-28T06:32:29.209Z,71.69
2022-09-28T06:33:29.195Z,73.59
2022-09-28T06:34:29.386Z,73.32
2022-09-28T06:35:29.215Z,67.12
2022-09-28T06:36:29.184Z,65.39
2022-09-28T06:37:29.171Z,74.81
2022-09-28T06:38:29.155Z,72.82
2022-09-28T06:39:29.148Z,73.56
2022-09-28T06:40:29.316Z,69.87
2022-09-28T06:41:29.129Z,70.93
2022-09-28T06:42:29.139Z,71.63
2022-09-28T06:43:34.150Z,71.16
2022-09-28T06:44:31.099Z,67.41
2022-09-28T06:45:29.119Z,67.29
2022-09-28T06:46:29.144Z,74.90
2022-09-28T06:47:29.087Z,73.63
2022-09-28T06:48:29.071Z,65.80
2022-09-28T06:49:29.066Z,69.24
2022-09-28T06:50:29.057Z,72.78
2022-09-28T06:51:29.071Z,64.72
2022-09-28T06:52:29.036Z,69.34
2022-09-28T06:53:29.036Z,71.84
2022-09-28T06:54:29.030Z,71.85
2022-09-28T06:55:29.046Z,62.44
2022-09-28T06:56:32.688Z,72.18
2022-09-28T06:57:29.995Z,71.24
2022-09-28T06:58:28.990Z,74.08
2022-09-28T06:59:28.988Z,70.40
2022-09-28T07:00:29.008Z,67.16
2022-09-28T07:01:29.025Z,69.27
2022-09-28T07:02:29.007Z,71.10
2022-09-28T07:03:28.952Z,70.82
2022-09-28T07:04:28.945Z,66.07
2022-09-28T07:05:28.962Z,67.79
2022-09-28T07:06:28.918Z,70.18
2022-09-28T07:07:28.914Z,70.36
2022-09-28T07:08:28.906Z,69.49
2022-09-28T07:09:32.969Z,70.63
2022-09-28T07:10:30.911Z,67.17
2022-09-28T07:11:28.894Z,71.07
2022-09-28T07:12:28.876Z,67.78
2022-09-28T07:13:48.828Z,67.65
2022-09-28T07:14:46.735Z,67.79
2022-09-28T07:15:30.885Z,70.88
2022-09-28T07:16:46.274Z,70.12
2022-09-28T07:17:31.174Z,71.64
2022-09-28T07:18:28.919Z,66.70
2022-09-28T07:19:28.812Z,69.20
2022-09-28T07:20:29.837Z,67.48
2022-09-28T07:21:30.638Z,67.73
2022-09-28T07:22:40.920Z,68.03
2022-09-28T07:23:31.051Z,69.44
2022-09-28T07:24:28.769Z,73.90
2022-09-28T07:25:28.797Z,70.70
2022-09-28T07:26:28.761Z,67.61
2022-09-28T07:27:29.104Z,66.87
2022-09-28T07:28:29.731Z,68.55
2022-09-28T07:29:28.729Z,70.93
2022-09-28T07:30:28.749Z,63.28
2022-09-28T07:31:28.744Z,70.78
2022-09-28T07:32:28.710Z,72.18
2022-09-28T07:33:28.696Z,67.37
2022-09-28T07:34:28.690Z,65.19
2022-09-28T07:35:28.716Z,69.33
2022-09-28T07:36:28.667Z,69.30
2022-09-28T07:37:28.662Z,71.10
2022-09-28T07:38:28.651Z,69.10
2022-09-28T07:39:28.876Z,69.69
2022-09-28T07:40:28.663Z,64.78
2022-09-28T07:41:28.652Z,67.41
2022-09-28T07:42:28.619Z,61.75
2022-09-28T07:43:28.610Z,69.83
2022-09-28T07:44:28.610Z,74.31
2022-09-28T07:45:28.638Z,67.55
2022-09-28T07:46:28.624Z,72.13
2022-09-28T07:47:33.881Z,70.13
2022-09-28T07:48:30.573Z,68.25
2022-09-28T07:49:28.564Z,70.83
2022-09-28T07:50:28.594Z,66.31
2022-09-28T07:51:28.549Z,69.35
2022-09-28T07:52:28.551Z,72.94
2022-09-28T07:53:28.545Z,65.11
2022-09-28T07:54:28.527Z,65.95
2022-09-28T07:55:28.515Z,66.98
2022-09-28T07:56:28.540Z,70.30
2022-09-28T07:57:28.507Z,71.58
2022-09-28T07:58:28.498Z,70.78
2022-09-28T07:59:28.484Z,69.56
2022-09-28T08:00:33.209Z,71.41
2022-09-28T08:01:30.601Z,66.04
2022-09-28T08:02:54.087Z,68.97
2022-09-28T08:03:28.449Z,75.12
2022-09-28T08:04:28.443Z,68.70
2022-09-28T08:05:28.432Z,69.68
2022-09-28T08:06:28.453Z,64.30
2022-09-28T08:07:28.422Z,70.83
2022-09-28T08:08:28.407Z,72.01
2022-09-28T08:09:28.399Z,69.88
2022-09-28T08:10:28.397Z,70.34
2022-09-28T08:11:28.413Z,61.42
2022-09-28T08:12:28.375Z,62.64
2022-09-28T08:13:28.363Z,68.79
2022-09-28T08:14:28.361Z,69.13
2022-09-28T08:15:28.352Z,72.74
2022-09-28T08:16:28.471Z,70.90
2022-09-28T08:17:28.337Z,66.14
2022-09-28T08:18:28.322Z,69.10
2022-09-28T08:19:28.325Z,71.22
2022-09-28T08:20:28.312Z,68.18
2022-09-28T08:21:28.332Z,69.50
2022-09-28T08:22:29.327Z,67.62
2022-09-28T08:23:28.297Z,73.12
2022-09-28T08:24:28.278Z,70.12
2022-09-28T08:25:28.261Z,67.90
2022-09-28T08:26:28.291Z,68.02
2022-09-28T08:27:28.257Z,70.17
2022-09-28T08:28:28.239Z,70.10
2022-09-28T08:29:28.230Z,70.98
2022-09-28T08:30:28.270Z,65.91
2022-09-28T08:31:28.247Z,68.81
2022-09-28T08:32:28.219Z,71.50
2022-09-28T08:33:28.209Z,70.37
2022-09-28T08:34:28.187Z,71.08
2022-09-28T08:35:28.189Z,65.12
2022-09-28T08:36:28.205Z,64.68
2022-09-28T08:37:28.167Z,71.97
2022-09-28T08:38:28.159Z,71.69
2022-09-28T08:39:28.153Z,60.28
2022-09-28T08:40:28.185Z,65.42
2022-09-28T08:41:28.158Z,71.23
2022-09-28T08:42:28.127Z,71.69
2022-09-28T08:43:28.126Z,65.18
2022-09-28T08:44:28.113Z,66.90
2022-09-28T08:45:28.107Z,69.84
2022-09-28T08:46:28.167Z,70.88
2022-09-28T08:47:28.085Z,64.03
2022-09-28T08:48:28.074Z,69.88
2022-09-28T08:49:28.160Z,69.53
2022-09-28T08:50:28.058Z,70.43
2022-09-28T08:51:28.083Z,65.73
2022-09-28T08:52:28.042Z,65.69
2022-09-28T08:53:28.032Z,68.92
2022-09-28T08:54:28.038Z,72.95
2022-09-28T08:55:28.027Z,66.54
2022-09-28T08:56:28.042Z,66.08
2022-09-28T08:57:27.998Z,62.21
2022-09-28T08:58:27.990Z,70.46
2022-09-28T08:59:27.980Z,71.69
2022-09-28T09:00:27.973Z,66.77
2022-09-28T09:01:28.017Z,64.33
2022-09-28T09:02:27.997Z,69.40
2022-09-28T09:03:27.948Z,71.66
2022-09-28T09:04:27.951Z,67.41
2022-09-28T09:05:27.934Z,70.18
2022-09-28T09:06:27.952Z,68.65
2022-09-28T09:07:27.914Z,66.86
2022-09-28T09:08:27.902Z,70.81
2022-09-28T09:09:27.897Z,72.10
2022-09-28T09:10:27.901Z,64.40
2022-09-28T09:11:27.909Z,68.61
2022-09-28T09:12:27.879Z,65.85
2022-09-28T09:13:27.872Z,62.65
2022-09-28T09:14:27.861Z,60.51
2022-09-28T09:15:27.843Z,70.47
2022-09-28T09:16:29.667Z,66.68
2022-09-28T09:17:28.838Z,64.58
2022-09-28T09:18:27.827Z,69.53
2022-09-28T09:19:27.838Z,66.42
2022-09-28T09:20:27.810Z,72.11
2022-09-28T09:21:27.825Z,67.52
2022-09-28T09:22:27.787Z,66.19
2022-09-28T09:23:27.779Z,73.17
2022-09-28T09:24:27.772Z,65.02
2022-09-28T09:25:27.772Z,67.10
2022-09-28T09:26:27.792Z,70.77
2022-09-28T09:27:27.754Z,67.31
2022-09-28T09:28:27.760Z,67.84
2022-09-28T09:29:27.736Z,68.07
2022-09-28T09:30:30.664Z,69.19
2022-09-28T09:31:28.742Z,68.99
2022-09-28T09:32:27.706Z,67.16
2022-09-28T09:33:27.695Z,63.44
2022-09-28T09:34:27.692Z,67.27
2022-09-28T09:35:30.588Z,68.49
2022-09-28T09:36:28.703Z,71.34
2022-09-28T09:37:27.669Z,63.96
2022-09-28T09:38:27.656Z,65.39
2022-09-28T09:39:27.648Z,67.03
2022-09-28T09:40:27.690Z,69.24
2022-09-28T09:41:27.661Z,68.39
2022-09-28T09:42:27.625Z,64.10
2022-09-28T09:43:30.888Z,66.99
2022-09-28T09:44:27.598Z,68.62
2022-09-28T09:45:27.596Z,72.20
2022-09-28T09:46:27.646Z,69.89
2022-09-28T09:47:27.579Z,61.71
2022-09-28T09:48:27.577Z,63.81
2022-09-28T09:49:27.571Z,62.82
2022-09-28T09:50:27.552Z,71.58
2022-09-28T09:51:27.593Z,69.89
2022-09-28T09:52:27.591Z,66.83
2022-09-28T09:53:27.537Z,61.74
2022-09-28T09:54:27.527Z,69.13
2022-09-28T09:55:29.967Z,70.27
2022-09-28T09:56:28.551Z,68.58
2022-09-28T09:57:27.509Z,66.92
2022-09-28T09:58:27.512Z,66.51
2022-09-28T09:59:27.494Z,68.66
2022-09-28T10:00:27.479Z,68.56
2022-09-28T10:01:27.545Z,62.99
2022-09-28T10:02:27.534Z,64.82
2022-09-28T10:03:27.461Z,67.34
2022-09-28T10:04:27.443Z,68.22
2022-09-28T10:05:27.435Z,62.10
2022-09-28T10:06:27.435Z,61.44
2022-09-28T10:07:27.454Z,67.18
2022-09-28T10:08:27.423Z,69.92
2022-09-28T10:09:27.410Z,67.93
2022-09-28T10:10:27.395Z,68.06
2022-09-28T10:11:27.390Z,66.97
2022-09-28T10:12:27.440Z,66.41
2022-09-28T10:13:27.370Z,69.14
2022-09-28T10:14:27.362Z,67.23
2022-09-28T10:15:27.357Z,68.33
2022-09-28T10:16:27.428Z,68.62
2022-09-28T10:17:27.436Z,71.40
2022-09-28T10:18:27.328Z,70.82
2022-09-28T10:19:27.324Z,63.66
2022-09-28T10:20:27.321Z,61.22
2022-09-28T10:21:27.321Z,67.75
2022-09-28T10:22:27.335Z,67.89
2022-09-28T10:23:27.295Z,70.81
2022-09-28T10:24:27.286Z,66.47
2022-09-28T10:25:27.273Z,65.90
2022-09-28T10:26:27.273Z,66.10
2022-09-28T10:27:27.284Z,70.32
2022-09-28T10:28:27.250Z,66.91
2022-09-28T10:29:27.239Z,62.87
2022-09-28T10:30:27.237Z,64.23
2022-09-28T10:31:27.225Z,63.70
2022-09-28T10:32:27.254Z,73.40
2022-09-28T10:33:27.216Z,67.17
2022-09-28T10:34:27.206Z,66.51
2022-09-28T10:35:27.189Z,63.87
2022-09-28T10:36:27.182Z,69.76
2022-09-28T10:37:27.208Z,66.77
2022-09-28T10:38:27.167Z,66.76
2022-09-28T10:39:27.159Z,66.28
2022-09-28T10:40:27.267Z,68.95
2022-09-28T10:41:27.142Z,70.53
2022-09-28T10:42:27.160Z,65.45
2022-09-28T10:43:27.124Z,64.59
2022-09-28T10:44:27.118Z,57.76
2022-09-28T10:45:27.112Z,71.08
2022-09-28T10:46:27.146Z,66.22
2022-09-28T10:47:27.116Z,68.33
2022-09-28T10:48:27.086Z,68.59
2022-09-28T10:49:27.084Z,70.33
2022-09-28T10:50:27.068Z,67.13
2022-09-28T10:51:27.058Z,64.89
2022-09-28T10:52:27.086Z,68.19
2022-09-28T10:53:27.046Z,70.70
2022-09-28T10:54:27.040Z,69.21
2022-09-28T10:55:27.029Z,66.85
2022-09-28T10:56:27.032Z,64.28
2022-09-28T10:57:27.041Z,67.87
2022-09-28T10:58:26.995Z,72.47
2022-09-28T10:59:27.998Z,65.46
2022-09-28T11:00:26.995Z,61.55
2022-09-28T11:01:27.051Z,67.53
2022-09-28T11:02:27.052Z,69.17
2022-09-28T11:03:26.968Z,70.83
2022-09-28T11:04:26.957Z,67.17
2022-09-28T11:05:26.947Z,64.25
2022-09-28T11:06:26.951Z,70.36
2022-09-28T11:07:26.956Z,71.26
2022-09-28T11:08:26.935Z,63.13
2022-09-28T11:09:29.847Z,69.78
2022-09-28T11:10:27.910Z,65.34
2022-09-28T11:11:26.909Z,67.73
2022-09-28T11:12:26.926Z,66.15
2022-09-28T11:13:26.887Z,66.36
2022-09-28T11:14:26.883Z,66.80
2022-09-28T11:15:26.866Z,64.96
2022-09-28T11:16:26.904Z,68.58
2022-09-28T11:17:26.880Z,69.63
2022-09-28T11:18:26.844Z,71.05
2022-09-28T11:19:26.841Z,62.26
2022-09-28T11:20:28.286Z,69.89
2022-09-28T11:21:27.825Z,69.42
2022-09-28T11:22:26.852Z,71.31
2022-09-28T11:23:26.810Z,63.20
2022-09-28T11:24:27.359Z,59.90
2022-09-28T11:25:26.801Z,66.55
2022-09-28T11:26:26.779Z,68.43
2022-09-28T11:27:26.804Z,71.12
2022-09-28T11:28:26.764Z,70.55
2022-09-28T11:29:26.785Z,69.96
2022-09-28T11:30:26.787Z,63.02
2022-09-28T11:31:26.742Z,64.55
2022-09-28T11:32:26.764Z,63.77
2022-09-28T11:33:26.726Z,67.78
2022-09-28T11:34:41.699Z,71.54
2022-09-28T11:35:28.709Z,71.28
2022-09-28T11:36:26.702Z,68.32
2022-09-28T11:37:26.724Z,64.41
2022-09-28T11:38:26.684Z,70.67
2022-09-28T11:39:26.676Z,69.18
2022-09-28T11:40:26.733Z,71.69
2022-09-28T11:41:26.657Z,65.45
2022-09-28T11:42:26.682Z,65.00
2022-09-28T11:43:26.646Z,59.43
2022-09-28T11:44:29.516Z,66.09
2022-09-28T11:45:28.620Z,70.28
2022-09-28T11:46:26.704Z,66.20
2022-09-28T11:47:26.645Z,69.08
2022-09-28T11:48:26.612Z,66.23
2022-09-28T11:49:26.585Z,67.41
2022-09-28T11:50:26.593Z,66.80
2022-09-28T11:51:26.593Z,70.33
2022-09-28T11:52:26.598Z,68.60
2022-09-28T11:53:26.557Z,64.83
2022-09-28T11:54:26.555Z,69.62
2022-09-28T11:55:26.546Z,69.64
2022-09-28T11:56:26.546Z,69.14
2022-09-28T11:57:26.566Z,67.21
2022-09-28T11:58:26.537Z,61.67
2022-09-28T11:59:26.515Z,68.16
2022-09-28T12:00:26.509Z,71.57
2022-09-28T12:01:26.504Z,63.09
2022-09-28T12:02:26.645Z,63.28
2022-09-28T12:03:26.567Z,63.62
2022-09-28T12:04:26.487Z,68.56
2022-09-28T12:05:26.479Z,69.24
2022-09-28T12:06:26.458Z,66.29
2022-09-28T12:07:26.483Z,68.33
2022-09-28T12:08:26.442Z,63.67
2022-09-28T12:09:26.440Z,69.63
2022-09-28T12:10:26.430Z,66.34
2022-09-28T12:11:26.419Z,67.81
2022-09-28T12:12:26.439Z,69.50
2022-09-28T12:13:26.401Z,65.56
2022-09-28T12:14:26.399Z,68.11
2022-09-28T12:15:26.393Z,64.88
2022-09-28T12:17:26.852Z,69.14
2022-09-28T12:17:28.489Z,68.27
2022-09-28T12:18:26.365Z,69.51
2022-09-28T12:19:26.353Z,67.77
2022-09-28T12:20:26.337Z,63.64
2022-09-28T12:21:26.335Z,69.14
2022-09-28T12:22:26.357Z,67.61
2022-09-28T12:23:26.390Z,68.46
2022-09-28T12:24:26.312Z,69.65
2022-09-28T12:25:26.313Z,57.73
2022-09-28T12:26:26.293Z,64.42
2022-09-28T12:27:26.316Z,69.77
2022-09-28T12:28:26.286Z,69.69
2022-09-28T12:29:26.276Z,69.60
2022-09-28T12:30:26.268Z,68.78
2022-09-28T12:31:26.257Z,70.90
2022-09-28T12:32:26.280Z,70.17
2022-09-28T12:33:26.242Z,65.46
2022-09-28T12:34:26.233Z,70.14
2022-09-28T12:35:26.246Z,69.05
2022-09-28T12:36:26.236Z,68.80
2022-09-28T12:37:26.252Z,70.03
2022-09-28T12:38:26.201Z,71.14
2022-09-28T12:39:40.791Z,69.74
2022-09-28T12:40:28.215Z,71.71
2022-09-28T12:41:26.170Z,68.10
2022-09-28T12:42:26.198Z,68.74
2022-09-28T12:43:26.165Z,68.69
2022-09-28T12:44:26.145Z,67.13
2022-09-28T12:45:26.155Z,70.86
2022-09-28T12:46:26.181Z,68.86
2022-09-28T12:47:26.158Z,71.99
2022-09-28T12:48:26.122Z,70.87
2022-09-28T12:50:51.203Z,69.81
2022-09-28T12:51:28.104Z,66.87
2022-09-28T12:52:26.114Z,67.42
2022-09-28T12:53:26.105Z,70.39